createdAt,value
2022-12-03T00:02:22.393Z,115.10
2022-12-03T00:04:49.528Z,106.60
2022-12-03T00:07:16.543Z,99.87
2022-12-03T00:09:43.418Z,99.97
2022-12-03T00:12:10.730Z,102.77
2022-12-03T00:14:42.913Z,91.10
2022-12-03T00:17:11.477Z,101.87
2022-12-03T00:19:38.159Z,107.97
2022-12-03T00:22:05.053Z,94.77
2022-12-03T00:24:31.985Z,98.23
2022-12-03T00:26:58.885Z,108.47
2022-12-03T00:29:26.145Z,98.90
2022-12-03T00:31:53.057Z,100.50
2022-12-03T00:34:21.637Z,99.60
2022-12-03T00:36:48.558Z,105.13
2022-12-03T00:39:15.481Z,99.53
2022-12-03T00:41:42.422Z,106.03
2022-12-03T00:44:11.110Z,105.30
2022-12-03T00:46:38.639Z,102.63
2022-12-03T00:49:05.625Z,111.10
2022-12-03T00:51:32.528Z,104.17
2022-12-03T00:53:59.474Z,105.77
2022-12-03T00:56:26.364Z,113.00
2022-12-03T00:58:53.252Z,113.40
2022-12-03T01:01:23.018Z,105.27
2022-12-03T01:03:50.402Z,109.67
2022-12-03T01:06:17.587Z,112.87
2022-12-03T01:08:44.527Z,97.10
2022-12-03T01:11:26.095Z,105.30
2022-12-03T01:13:53.395Z,104.23
2022-12-03T01:16:20.396Z,116.07
2022-12-03T01:18:47.448Z,117.33
2022-12-03T01:21:14.718Z,105.70
2022-12-03T01:23:41.599Z,117.80
2022-12-03T01:26:11.414Z,123.40
2022-12-03T01:28:38.315Z,118.33
2022-12-03T01:31:23.388Z,128.67
2022-12-03T01:33:50.357Z,115.40
2022-12-03T01:36:17.704Z,121.43
2022-12-03T01:38:44.623Z,107.67
2022-12-03T01:41:12.135Z,112.70
2022-12-03T01:43:39.354Z,103.70
2022-12-03T01:46:06.705Z,117.07
2022-12-03T01:48:35.246Z,118.47
2022-12-03T01:51:02.217Z,119.10
2022-12-03T01:53:29.581Z,95.80
2022-12-03T01:55:56.467Z,100.30
2022-12-03T01:58:26.949Z,103.60
2022-12-03T02:00:53.843Z,107.03
2022-12-03T02:03:23.871Z,109.20
2022-12-03T02:05:51.043Z,100.77
2022-12-03T02:08:28.052Z,118.07
2022-12-03T02:10:56.312Z,98.93
2022-12-03T02:13:23.318Z,104.27
2022-12-03T02:15:50.335Z,107.13
2022-12-03T02:18:17.297Z,111.00
2022-12-03T02:20:53.926Z,108.30
2022-12-03T02:23:29.988Z,106.03
2022-12-03T02:25:57.437Z,115.07
2022-12-03T02:28:24.624Z,113.57
2022-12-03T02:30:51.583Z,97.80
2022-12-03T02:33:18.571Z,105.83
2022-12-03T02:35:45.721Z,103.73
2022-12-03T02:38:15.817Z,109.50
2022-12-03T02:40:43.710Z,93.87
2022-12-03T02:43:14.237Z,99.93
2022-12-03T02:45:43.752Z,104.27
2022-12-03T02:48:13.761Z,107.73
2022-12-03T02:50:44.865Z,99.77
2022-12-03T02:53:15.037Z,114.80
2022-12-03T02:55:42.312Z,108.13
2022-12-03T02:58:10.747Z,101.00
2022-12-03T03:00:38.603Z,106.23
2022-12-03T03:03:08.558Z,112.77
2022-12-03T03:05:37.544Z,119.13
2022-12-03T03:08:04.987Z,117.67
2022-12-03T03:10:34.068Z,112.43
2022-12-03T03:13:11.150Z,107.67
2022-12-03T03:15:38.942Z,109.43
2022-12-03T03:18:05.975Z,103.53
2022-12-03T03:20:33.126Z,114.27
2022-12-03T03:23:06.414Z,102.03
2022-12-03T03:25:33.341Z,105.83
2022-12-03T03:28:00.300Z,107.00
2022-12-03T03:30:27.659Z,109.10
2022-12-03T03:32:54.578Z,127.57
2022-12-03T03:35:22.443Z,99.20
2022-12-03T03:37:49.320Z,99.87
2022-12-03T03:40:16.675Z,103.07
2022-12-03T03:42:43.750Z,98.03
2022-12-03T03:45:10.856Z,100.57
2022-12-03T03:47:38.751Z,106.63
2022-12-03T03:50:07.455Z,106.50
2022-12-03T03:52:34.665Z,111.40
2022-12-03T03:55:01.634Z,119.33
2022-12-03T03:57:28.537Z,119.17
2022-12-03T03:59:55.494Z,111.47
2022-12-03T04:02:24.515Z,106.67
2022-12-03T04:04:52.262Z,112.37
2022-12-03T04:07:19.319Z,108.60
2022-12-03T04:09:46.198Z,115.17
2022-12-03T04:12:31.160Z,115.30
2022-12-03T04:14:58.305Z,106.97
2022-12-03T04:17:25.162Z,101.73
2022-12-03T04:19:52.422Z,100.53
2022-12-03T04:22:37.794Z,101.77
2022-12-03T04:25:23.547Z,92.63
2022-12-03T04:28:08.768Z,109.17
2022-12-03T04:30:35.717Z,107.67
2022-12-03T04:33:20.886Z,120.47
2022-12-03T04:35:49.100Z,98.03
2022-12-03T04:38:16.146Z,110.73
2022-12-03T04:41:03.121Z,117.33
2022-12-03T04:43:31.238Z,96.80
2022-12-03T04:45:58.171Z,123.77
2022-12-03T04:48:25.053Z,109.70
2022-12-03T04:50:52.273Z,103.80
2022-12-03T04:53:19.222Z,109.20
2022-12-03T04:55:46.141Z,95.40
2022-12-03T04:58:15.556Z,105.10
2022-12-03T05:00:42.432Z,105.00
2022-12-03T05:03:09.346Z,104.77
2022-12-03T05:05:36.211Z,105.17
2022-12-03T05:08:03.956Z,102.43
2022-12-03T05:10:30.855Z,110.47
2022-12-03T05:12:57.739Z,117.80
2022-12-03T05:15:24.637Z,106.37
2022-12-03T05:17:51.537Z,109.80
2022-12-03T05:20:36.928Z,126.03
2022-12-03T05:23:04.185Z,108.93
2022-12-03T05:25:31.036Z,109.53
2022-12-03T05:27:57.896Z,112.67
2022-12-03T05:30:24.830Z,113.10
2022-12-03T05:32:51.781Z,128.90
2022-12-03T05:35:18.697Z,123.87
2022-12-03T05:37:45.596Z,102.53
2022-12-03T05:40:13.861Z,114.07
2022-12-03T05:42:56.415Z,127.83
2022-12-03T05:45:24.871Z,112.93
2022-12-03T05:47:51.936Z,106.70
2022-12-03T05:50:18.862Z,122.07
2022-12-03T05:52:45.867Z,115.20
2022-12-03T05:55:13.573Z,110.60
2022-12-03T05:57:40.805Z,130.07
2022-12-03T06:00:11.500Z,116.87
2022-12-03T06:02:38.496Z,118.33
2022-12-03T06:05:06.156Z,107.87
2022-12-03T06:07:33.123Z,110.13
2022-12-03T06:10:00.081Z,123.90
2022-12-03T06:12:27.379Z,118.30
2022-12-03T06:14:54.568Z,138.93
2022-12-03T06:17:21.736Z,118.07
2022-12-03T06:19:48.338Z,121.57
2022-12-03T06:22:15.235Z,120.30
2022-12-03T06:24:41.926Z,125.47
2022-12-03T06:27:09.024Z,126.13
2022-12-03T06:29:36.345Z,123.13
2022-12-03T06:32:03.558Z,128.90
2022-12-03T06:34:30.486Z,126.97
2022-12-03T06:36:57.434Z,127.67
2022-12-03T06:39:24.386Z,145.73
2022-12-03T06:41:51.288Z,121.60
2022-12-03T06:44:18.322Z,136.43
2022-12-03T06:46:45.644Z,129.10
2022-12-03T06:49:12.596Z,147.07
2022-12-03T06:51:39.503Z,119.20
2022-12-03T06:54:06.568Z,126.53
2022-12-03T06:56:37.791Z,122.30
2022-12-03T06:59:06.062Z,108.37
2022-12-03T07:01:33.086Z,123.00
2022-12-03T07:04:00.327Z,121.40
2022-12-03T07:06:27.268Z,121.80
2022-12-03T07:08:54.163Z,120.90
2022-12-03T07:11:39.186Z,122.90
2022-12-03T07:14:07.104Z,127.87
2022-12-03T07:16:35.023Z,118.37
2022-12-03T07:19:02.427Z,116.33
2022-12-03T07:21:29.355Z,108.90
2022-12-03T07:23:56.298Z,132.63
2022-12-03T07:26:23.277Z,130.60
2022-12-03T07:28:49.942Z,126.60
2022-12-03T07:31:16.982Z,132.40
2022-12-03T07:33:43.750Z,126.20
2022-12-03T07:36:11.132Z,127.70
2022-12-03T07:38:38.048Z,147.17
2022-12-03T07:41:05.015Z,148.57
2022-12-03T07:43:32.070Z,123.77
2022-12-03T07:45:58.967Z,119.23
2022-12-03T07:48:25.856Z,140.40
2022-12-03T07:50:52.822Z,135.47
2022-12-03T07:53:20.352Z,129.33
2022-12-03T07:55:47.242Z,136.77
2022-12-03T07:58:14.120Z,123.00
2022-12-03T08:00:41.220Z,117.87
2022-12-03T08:03:08.318Z,135.43
2022-12-03T08:05:35.196Z,122.23
2022-12-03T08:08:02.337Z,128.43
2022-12-03T08:10:30.077Z,125.87
2022-12-03T08:12:58.682Z,130.77
2022-12-03T08:15:30.129Z,129.77
2022-12-03T08:18:01.448Z,134.00
2022-12-03T08:20:29.723Z,129.37
2022-12-03T08:22:57.023Z,143.53
2022-12-03T08:25:25.512Z,139.97
2022-12-03T08:27:56.224Z,142.13
2022-12-03T08:30:23.276Z,134.23
2022-12-03T08:32:51.576Z,130.93
2022-12-03T08:35:22.965Z,130.60
2022-12-03T08:38:00.884Z,136.83
2022-12-03T08:40:34.440Z,122.43
2022-12-03T08:43:01.769Z,133.43
2022-12-03T08:45:43.892Z,135.73
2022-12-03T08:48:29.371Z,137.53
2022-12-03T08:50:57.606Z,121.60
2022-12-03T08:53:35.840Z,127.50
2022-12-03T08:56:04.946Z,136.73
2022-12-03T08:58:38.406Z,119.80
2022-12-03T09:01:31.699Z,139.03
2022-12-03T09:04:18.854Z,126.30
2022-12-03T09:06:45.875Z,140.87
2022-12-03T09:09:12.768Z,119.47
2022-12-03T09:11:39.767Z,126.77
2022-12-03T09:14:07.227Z,145.87
2022-12-03T09:16:34.197Z,141.00
2022-12-03T09:19:01.317Z,131.53
2022-12-03T09:21:28.241Z,132.87
2022-12-03T09:23:55.140Z,123.13
2022-12-03T09:26:21.750Z,131.47
2022-12-03T09:28:48.922Z,132.37
2022-12-03T09:31:16.689Z,141.70
2022-12-03T09:33:43.568Z,139.07
2022-12-03T09:36:10.449Z,132.87
2022-12-03T09:38:37.359Z,139.57
2022-12-03T09:41:04.427Z,132.77
2022-12-03T09:44:02.590Z,124.87
2022-12-03T09:46:21.527Z,123.33
2022-12-03T09:48:48.480Z,138.83
2022-12-03T09:51:15.423Z,116.40
2022-12-03T09:53:42.388Z,123.63
2022-12-03T09:56:16.735Z,121.10
2022-12-03T09:58:43.754Z,131.47
2022-12-03T10:01:14.133Z,137.97
2022-12-03T10:03:46.117Z,142.13
2022-12-03T10:06:16.585Z,130.70
2022-12-03T10:08:45.374Z,135.50
2022-12-03T10:11:12.324Z,129.50
2022-12-03T10:13:39.752Z,142.83
2022-12-03T10:16:09.951Z,155.53
2022-12-03T10:18:41.403Z,133.43
2022-12-03T10:21:16.714Z,135.63
2022-12-03T10:23:43.658Z,126.87
2022-12-03T10:26:10.573Z,124.73
2022-12-03T10:28:39.960Z,154.17
2022-12-03T10:31:08.715Z,142.90
2022-12-03T10:33:37.712Z,129.17
2022-12-03T10:36:17.798Z,137.87
2022-12-03T10:38:45.042Z,131.93
2022-12-03T10:41:23.283Z,140.90
2022-12-03T10:43:51.195Z,131.87
2022-12-03T10:46:19.281Z,124.40
2022-12-03T10:48:46.277Z,142.87
2022-12-03T10:51:20.283Z,139.37
2022-12-03T10:53:48.403Z,147.03
2022-12-03T10:56:20.070Z,146.70
2022-12-03T10:58:46.926Z,121.83
2022-12-03T11:01:16.408Z,144.00
2022-12-03T11:03:43.460Z,151.20
2022-12-03T11:06:14.252Z,135.67
2022-12-03T11:08:44.037Z,126.13
2022-12-03T11:11:17.762Z,134.70
2022-12-03T11:13:49.265Z,143.67
2022-12-03T11:17:06.043Z,132.00
2022-12-03T11:19:49.437Z,146.73
2022-12-03T11:22:41.235Z,139.43
2022-12-03T11:25:47.370Z,146.97
2022-12-03T11:28:38.108Z,128.07
2022-12-03T11:31:11.567Z,131.47
2022-12-03T11:33:40.112Z,129.67
2022-12-03T11:36:14.711Z,125.63
2022-12-03T11:38:52.384Z,137.70
2022-12-03T11:41:22.726Z,129.90
2022-12-03T11:44:28.915Z,132.07
2022-12-03T11:46:58.451Z,127.40
2022-12-03T11:49:37.125Z,126.87
2022-12-03T11:52:19.537Z,141.87
2022-12-03T11:54:50.387Z,132.90
2022-12-03T11:57:30.474Z,129.90
2022-12-03T12:00:19.321Z,133.47
2022-12-03T12:02:47.391Z,128.10
2022-12-03T12:05:15.764Z,133.57
2022-12-03T12:07:45.096Z,119.20
2022-12-03T12:10:12.091Z,137.87
2022-12-03T12:12:44.394Z,135.07
2022-12-03T12:15:42.761Z,129.47
2022-12-03T12:18:35.773Z,137.70
2022-12-03T12:21:39.972Z,122.07
2022-12-03T12:24:39.740Z,123.33
2022-12-03T12:27:08.618Z,126.30
2022-12-03T12:29:36.021Z,113.67
2022-12-03T12:32:12.016Z,132.27
2022-12-03T12:34:40.177Z,130.07
2022-12-03T12:37:10.832Z,147.90
2022-12-03T12:39:38.306Z,134.43
2022-12-03T12:42:21.820Z,136.40
2022-12-03T12:44:49.954Z,131.70
2022-12-03T12:47:16.748Z,131.40
2022-12-03T12:49:48.716Z,134.70
2022-12-03T12:52:18.547Z,123.20
2022-12-03T12:54:45.426Z,136.03
2022-12-03T12:57:13.788Z,120.70
2022-12-03T12:59:40.909Z,133.07
2022-12-03T13:02:41.854Z,151.90
2022-12-03T13:05:12.157Z,135.30
2022-12-03T13:07:39.727Z,138.97
2022-12-03T13:10:38.028Z,150.37
2022-12-03T13:13:26.077Z,137.37
2022-12-03T13:15:59.024Z,134.57
2022-12-03T13:18:38.636Z,139.47
2022-12-03T13:21:21.726Z,143.67
2022-12-03T13:23:48.910Z,141.50
2022-12-03T13:26:32.893Z,134.77
2022-12-03T13:29:10.664Z,140.47
2022-12-03T13:31:43.192Z,137.70
2022-12-03T13:34:15.980Z,137.47
2022-12-03T13:36:45.187Z,136.23
2022-12-03T13:39:16.515Z,137.87
2022-12-03T13:42:04.213Z,138.07
2022-12-03T13:44:32.003Z,129.63
2022-12-03T13:47:01.694Z,133.13
2022-12-03T13:49:29.554Z,144.50
2022-12-03T13:51:56.854Z,168.03
2022-12-03T13:54:27.408Z,149.73
2022-12-03T13:56:54.328Z,137.67
2022-12-03T13:59:25.950Z,146.33
2022-12-03T14:02:01.138Z,144.27
2022-12-03T14:04:28.285Z,133.60
2022-12-03T14:06:55.210Z,134.13
2022-12-03T14:09:22.527Z,153.37
2022-12-03T14:12:07.918Z,134.50
2022-12-03T14:14:34.935Z,131.70
2022-12-03T14:17:02.445Z,129.00
2022-12-03T14:19:29.351Z,117.67
2022-12-03T14:21:56.305Z,117.77
2022-12-03T14:24:23.649Z,132.63
2022-12-03T14:26:50.530Z,129.00
2022-12-03T14:29:17.450Z,119.73
2022-12-03T14:31:44.489Z,124.60
2022-12-03T14:34:11.450Z,133.57
2022-12-03T14:36:41.362Z,116.77
2022-12-03T14:39:08.260Z,117.57
2022-12-03T14:41:53.792Z,111.47
2022-12-03T14:44:22.834Z,109.27
2022-12-03T14:46:55.470Z,116.97
2022-12-03T14:49:24.665Z,126.63
2022-12-03T14:51:51.791Z,125.23
2022-12-03T14:54:19.074Z,114.33
2022-12-03T14:56:46.609Z,114.57
2022-12-03T14:59:13.688Z,119.93
2022-12-03T15:01:40.745Z,122.90
2022-12-03T15:04:08.302Z,118.40
2022-12-03T15:06:35.238Z,142.73
2022-12-03T15:09:02.285Z,134.47
2022-12-03T15:11:29.270Z,121.83
2022-12-03T15:13:57.233Z,112.10
2022-12-03T15:16:24.208Z,126.97
2022-12-03T15:18:51.202Z,117.67
2022-12-03T15:21:18.264Z,129.80
2022-12-03T15:23:45.243Z,122.10
2022-12-03T15:26:12.183Z,113.23
2022-12-03T15:28:40.038Z,125.57
2022-12-03T15:31:09.615Z,129.03
2022-12-03T15:33:36.591Z,117.37
2022-12-03T15:39:48.348Z,126.47
2022-12-03T15:42:15.588Z,117.60
2022-12-03T15:44:42.499Z,110.03
2022-12-03T15:47:09.759Z,116.30
2022-12-03T15:49:36.532Z,122.77
2022-12-03T15:52:03.879Z,122.90
2022-12-03T15:54:30.778Z,117.27
2022-12-03T15:56:57.793Z,110.47
2022-12-03T15:59:24.764Z,135.00
2022-12-03T16:01:51.816Z,126.83
2022-12-03T16:04:19.432Z,136.63
2022-12-03T16:06:46.543Z,122.13
2022-12-03T16:09:13.507Z,122.17
2022-12-03T16:11:40.419Z,133.60
2022-12-03T16:14:07.137Z,125.50
2022-12-03T16:16:34.110Z,124.97
2022-12-03T16:19:01.112Z,120.63
2022-12-03T16:21:28.720Z,132.50
2022-12-03T16:23:55.945Z,134.13
2022-12-03T16:26:22.857Z,107.03
2022-12-03T16:28:49.767Z,116.30
2022-12-03T16:31:18.279Z,110.27
2022-12-03T16:33:45.212Z,120.23
2022-12-03T16:36:12.199Z,123.73
2022-12-03T16:38:39.938Z,125.50
2022-12-03T16:41:06.886Z,132.07
2022-12-03T16:43:37.737Z,131.50
2022-12-03T16:46:20.032Z,120.77
2022-12-03T16:48:47.366Z,122.17
2022-12-03T16:51:14.251Z,107.20
2022-12-03T16:53:41.757Z,110.13
2022-12-03T16:56:08.806Z,124.23
2022-12-03T16:58:35.465Z,116.30
2022-12-03T17:01:02.513Z,119.90
2022-12-03T17:03:33.787Z,124.10
2022-12-03T17:06:01.629Z,130.80
2022-12-03T17:08:28.592Z,115.20
2022-12-03T17:10:57.421Z,123.60
2022-12-03T17:13:24.717Z,119.87
2022-12-03T17:15:52.411Z,121.27
2022-12-03T17:18:19.974Z,112.27
2022-12-03T17:20:46.876Z,127.43
2022-12-03T17:23:17.009Z,131.70
2022-12-03T17:25:44.119Z,128.60
2022-12-03T17:28:11.408Z,113.30
2022-12-03T17:30:38.347Z,121.70
2022-12-03T17:33:05.077Z,118.37
2022-12-03T17:35:31.982Z,118.30
2022-12-03T17:37:58.908Z,125.63
2022-12-03T17:40:34.888Z,133.00
2022-12-03T17:43:01.741Z,118.73
2022-12-03T17:45:28.997Z,122.93
2022-12-03T17:47:55.925Z,126.77
2022-12-03T17:50:22.862Z,109.57
2022-12-03T21:02:07.671Z,139.90
2022-12-03T21:04:36.062Z,157.53
2022-12-03T21:07:02.973Z,140.53
2022-12-03T21:09:29.865Z,146.43
2022-12-03T21:11:56.927Z,142.33
2022-12-03T21:14:23.610Z,167.93
2022-12-03T21:17:08.764Z,147.30
2022-12-03T21:19:37.028Z,149.70
2022-12-03T21:22:03.893Z,152.23
2022-12-03T21:24:30.566Z,164.30
2022-12-03T21:26:57.204Z,141.90
2022-12-03T21:29:24.293Z,151.40
2022-12-03T21:31:51.232Z,137.53
2022-12-03T21:34:18.219Z,137.53
2022-12-03T21:36:45.521Z,147.60
2022-12-03T21:39:12.145Z,150.57
2022-12-03T21:41:39.082Z,157.37
2022-12-03T21:44:05.959Z,151.63
2022-12-03T21:47:10.838Z,153.73
2022-12-03T21:49:19.763Z,142.10
2022-12-03T21:51:47.109Z,156.97
2022-12-03T21:54:14.092Z,159.67
2022-12-03T21:56:41.054Z,149.77
2022-12-03T21:59:07.983Z,169.83
2022-12-03T22:01:34.970Z,165.23
2022-12-03T22:04:01.903Z,161.87
2022-12-03T22:06:28.833Z,165.63
2022-12-03T22:08:56.287Z,149.40
2022-12-03T22:11:23.740Z,163.17
2022-12-03T22:13:50.955Z,162.63
2022-12-03T22:16:20.067Z,158.57
2022-12-03T22:18:47.177Z,166.40
2022-12-03T22:21:16.143Z,162.73
2022-12-03T22:23:43.226Z,158.17
2022-12-03T22:26:13.690Z,166.97
2022-12-03T22:28:43.523Z,166.73
2022-12-03T22:31:16.530Z,175.50
2022-12-03T22:33:49.376Z,152.97
2022-12-03T22:36:21.991Z,154.87
2022-12-03T22:38:52.926Z,155.60
2022-12-03T22:41:27.725Z,173.70
2022-12-03T22:44:06.495Z,155.97
2022-12-03T22:46:43.520Z,150.63
2022-12-03T22:49:16.937Z,158.53
2022-12-03T22:51:55.058Z,171.93
2022-12-03T22:54:27.224Z,144.40
2022-12-03T22:56:54.633Z,165.57
2022-12-03T22:59:26.642Z,154.57
2022-12-03T23:02:01.659Z,159.83
2022-12-03T23:04:29.014Z,169.93
2022-12-03T23:07:09.768Z,159.17
2022-12-03T23:09:36.896Z,155.03
2022-12-03T23:12:04.677Z,181.60
2022-12-03T23:14:31.582Z,162.63
2022-12-03T23:16:58.488Z,173.93
2022-12-03T23:19:25.774Z,168.50
2022-12-03T23:21:52.760Z,165.90
2022-12-03T23:24:19.660Z,171.33
2022-12-03T23:26:46.869Z,164.67
2022-12-03T23:29:14.302Z,163.27
2022-12-03T23:31:40.984Z,163.27
2022-12-03T23:34:08.065Z,152.37
2022-12-03T23:36:35.104Z,160.73
2022-12-03T23:39:02.118Z,169.13
2022-12-03T23:41:29.052Z,167.63
2022-12-03T23:43:56.477Z,171.63
2022-12-03T23:46:27.648Z,185.20
2022-12-03T23:48:54.849Z,180.70
2022-12-03T23:51:23.363Z,167.70
2022-12-03T23:53:50.408Z,178.60
2022-12-03T23:56:21.835Z,174.27
2022-12-03T23:58:48.831Z,169.40
